Terminal Aerodrome Forecast
Issued by NWS

Home | Current Version | Previous Version | Text Only | Print | Product List | Glossary On
Versions: 1 2 3 4 5 6 7 8 9 10 11 12 13 14 15 16 17 18
000
FTUS46 KSGX 230700 AAA
TAFCRQ
TAF AMD
KCRQ 230703Z 2307/2406 VRB03KT P6SM FEW014 SCT250
      TEMPO 2308/2312 BKN012
     FM232000 28007KT P6SM SCT250
     FM240100 VRB04KT P6SM FEW250=

USA.gov is the U.S. government's official web portal to all federal, state and local government web resources and services.